createdAt,value
2022-12-12T00:01:04.696Z,1.10
2022-12-12T00:03:48.079Z,1.10
2022-12-12T00:06:19.628Z,1.20
2022-12-12T00:09:04.762Z,1.20
2022-12-12T00:11:38.813Z,1.20
2022-12-12T00:14:24.606Z,1.20
2022-12-12T00:17:00.300Z,1.20
2022-12-12T00:19:33.014Z,1.20
2022-12-12T00:22:22.076Z,1.30
2022-12-12T00:24:54.609Z,1.30
2022-12-12T00:29:06.637Z,1.40
2022-12-12T00:31:42.594Z,1.30
2022-12-12T00:34:26.224Z,1.40
2022-12-12T00:37:13.862Z,1.30
2022-12-12T00:39:45.826Z,1.30
2022-12-12T00:42:25.890Z,1.50
2022-12-12T00:45:07.571Z,1.40
2022-12-12T00:47:53.091Z,1.40
2022-12-12T00:50:24.909Z,1.40
2022-12-12T00:52:55.939Z,1.40
2022-12-12T00:55:36.925Z,1.30
2022-12-12T00:58:23.122Z,1.30
2022-12-12T01:01:16.740Z,1.30
2022-12-12T01:04:14.670Z,1.30
2022-12-12T01:06:49.505Z,1.30
2022-12-12T01:09:43.987Z,1.30
2022-12-12T01:12:19.744Z,1.30
2022-12-12T01:14:51.592Z,1.30
2022-12-12T01:17:23.062Z,1.30
2022-12-12T01:19:57.744Z,1.30
2022-12-12T01:23:20.019Z,1.30
2022-12-12T01:26:19.743Z,1.30
2022-12-12T01:28:50.787Z,1.30
2022-12-12T01:31:19.590Z,1.30
2022-12-12T01:33:48.057Z,1.30
2022-12-12T01:36:21.591Z,1.30
2022-12-12T01:38:51.917Z,1.30
2022-12-12T01:41:37.582Z,1.30
2022-12-12T01:44:39.374Z,1.30
2022-12-12T01:47:26.983Z,1.30
2022-12-12T01:50:18.127Z,1.30
2022-12-12T01:53:00.891Z,1.30
2022-12-12T01:55:33.874Z,1.30
2022-12-12T01:58:09.044Z,1.30
2022-12-12T02:03:36.211Z,1.30
2022-12-12T02:06:35.424Z,1.30
2022-12-12T02:09:48.804Z,1.70
2022-12-12T02:12:43.076Z,1.30
2022-12-12T02:15:20.967Z,1.40
2022-12-12T02:18:36.147Z,1.30
2022-12-12T02:21:40.946Z,1.30
2022-12-12T02:32:06.246Z,1.30
2022-12-12T02:39:02.883Z,1.30
2022-12-12T02:42:08.981Z,1.30
2022-12-12T02:45:04.478Z,1.30
2022-12-12T02:47:59.119Z,1.30
2022-12-12T02:50:30.519Z,1.30
2022-12-12T02:53:06.582Z,1.30
2022-12-12T02:55:51.886Z,1.30
2022-12-12T02:58:31.118Z,1.30
2022-12-12T03:01:25.683Z,1.30
2022-12-12T03:04:21.909Z,1.20
2022-12-12T03:07:43.790Z,1.30
2022-12-12T03:10:43.095Z,1.30
2022-12-12T03:13:51.054Z,1.30
2022-12-12T03:16:53.989Z,1.20
2022-12-12T03:23:09.130Z,1.30
2022-12-12T03:26:39.423Z,1.30
2022-12-12T03:29:31.128Z,1.30
2022-12-12T03:32:15.696Z,1.40
2022-12-12T03:34:55.857Z,1.40
2022-12-12T03:37:28.565Z,1.40
2022-12-12T03:40:06.329Z,1.40
2022-12-12T03:42:53.042Z,1.50
2022-12-12T03:45:34.051Z,1.50
2022-12-12T03:48:22.960Z,1.50
2022-12-12T03:51:11.444Z,1.50
2022-12-12T03:54:36.812Z,1.50
2022-12-12T03:57:29.453Z,1.40
2022-12-12T04:00:08.983Z,1.40
2022-12-12T04:03:16.332Z,1.40
2022-12-12T04:06:27.507Z,1.40
2022-12-12T04:09:38.649Z,1.40
2022-12-12T04:12:46.040Z,1.40
2022-12-12T04:16:10.502Z,1.40
2022-12-12T04:19:36.951Z,1.40
2022-12-12T04:22:43.807Z,1.50
2022-12-12T04:26:12.342Z,1.40
2022-12-12T04:28:52.654Z,1.40
2022-12-12T04:31:33.694Z,1.80
2022-12-12T04:34:28.741Z,1.30
2022-12-12T04:37:26.503Z,1.40
2022-12-12T04:40:15.140Z,1.40
2022-12-12T04:43:00.999Z,1.40
2022-12-12T04:49:12.412Z,1.40
2022-12-12T04:52:11.580Z,1.40
2022-12-12T04:55:24.139Z,1.40
2022-12-12T04:57:57.357Z,1.40
2022-12-12T05:00:35.178Z,1.40
2022-12-12T05:03:44.194Z,1.40
2022-12-12T05:06:19.621Z,1.40
2022-12-12T05:08:57.543Z,1.40
2022-12-12T05:14:20.772Z,1.40
2022-12-12T05:16:54.609Z,1.40
2022-12-12T05:19:25.749Z,1.40
2022-12-12T05:21:56.807Z,1.40
2022-12-12T05:24:31.317Z,1.40
2022-12-12T05:27:03.968Z,1.40
2022-12-12T05:29:40.175Z,1.40
2022-12-12T05:32:11.288Z,1.40
2022-12-12T05:34:43.913Z,1.50
2022-12-12T05:37:22.810Z,1.40
2022-12-12T05:39:55.909Z,1.50
2022-12-12T05:42:34.974Z,1.50
2022-12-12T05:45:20.998Z,1.50
2022-12-12T05:47:55.663Z,1.50
2022-12-12T05:53:47.358Z,1.40
2022-12-12T05:57:38.828Z,1.40
2022-12-12T06:00:21.861Z,1.40
2022-12-12T06:02:57.795Z,1.50
2022-12-12T06:05:48.314Z,1.40
2022-12-12T06:08:50.365Z,1.40
2022-12-12T06:11:21.415Z,1.40
2022-12-12T06:13:50.212Z,1.40
2022-12-12T06:16:20.907Z,1.40
2022-12-12T06:18:56.594Z,1.40
2022-12-12T06:21:29.579Z,1.40
2022-12-12T06:24:05.235Z,1.40
2022-12-12T06:26:51.774Z,1.40
2022-12-12T06:29:19.912Z,1.40
2022-12-12T06:31:54.682Z,1.40
2022-12-12T06:34:31.446Z,1.40
2022-12-12T06:37:11.763Z,1.40
2022-12-12T06:39:48.164Z,1.40
2022-12-12T06:42:32.295Z,1.40
2022-12-12T06:45:28.628Z,1.50
2022-12-12T06:51:25.294Z,1.50
2022-12-12T07:02:57.788Z,2.30
2022-12-12T07:14:16.996Z,1.60
2022-12-12T07:20:11.519Z,1.70
2022-12-12T07:22:53.482Z,1.60
2022-12-12T07:25:30.255Z,1.30
2022-12-12T07:28:25.668Z,1.60
2022-12-12T07:31:58.473Z,1.60
2022-12-12T07:39:21.339Z,1.50
2022-12-12T07:42:25.258Z,1.50
2022-12-12T07:45:50.810Z,2.20
2022-12-12T07:48:29.526Z,1.60
2022-12-12T07:51:20.828Z,1.50
2022-12-12T07:54:15.333Z,1.60
2022-12-12T07:57:06.859Z,1.60
2022-12-12T08:00:19.021Z,1.60
2022-12-12T08:03:04.744Z,1.60
2022-12-12T08:05:49.825Z,1.50
2022-12-12T08:12:07.297Z,1.50
2022-12-12T08:14:50.195Z,1.50
2022-12-12T08:17:47.204Z,1.50
2022-12-12T08:20:36.987Z,1.50
2022-12-12T08:23:12.379Z,1.50
2022-12-12T08:26:32.450Z,1.60
2022-12-12T08:29:29.679Z,1.60
2022-12-12T08:32:09.808Z,1.60
2022-12-12T08:35:06.513Z,1.70
2022-12-12T08:38:20.054Z,1.80
2022-12-12T08:40:52.075Z,1.90
2022-12-12T08:43:31.511Z,2.00
2022-12-12T08:46:16.972Z,2.00
2022-12-12T08:48:46.999Z,2.00
2022-12-12T08:51:19.843Z,2.10
2022-12-12T08:53:49.129Z,2.00
2022-12-12T08:56:20.821Z,2.00
2022-12-12T08:58:51.308Z,2.00
2022-12-12T09:01:25.183Z,1.90
2022-12-12T09:03:54.811Z,1.90
2022-12-12T09:06:23.766Z,1.80
2022-12-12T09:08:51.822Z,1.80
2022-12-12T09:11:22.794Z,1.70
2022-12-12T09:13:58.254Z,1.70
2022-12-12T09:16:30.570Z,1.60
2022-12-12T09:19:02.647Z,1.60
2022-12-12T09:21:42.355Z,1.50
2022-12-12T09:24:13.577Z,1.50
2022-12-12T09:26:45.770Z,1.50
2022-12-12T09:29:33.880Z,1.40
2022-12-12T09:32:08.930Z,1.50
2022-12-12T09:38:02.538Z,1.50
2022-12-12T09:41:16.097Z,1.50
2022-12-12T09:44:27.179Z,1.50
2022-12-12T09:47:20.830Z,1.50
2022-12-12T09:50:03.131Z,1.50
2022-12-12T09:53:08.887Z,1.50
2022-12-12T09:56:29.919Z,1.50
2022-12-12T09:59:57.791Z,1.50
2022-12-12T10:03:12.387Z,1.60
2022-12-12T10:06:35.823Z,1.60
2022-12-12T10:10:02.952Z,1.60
2022-12-12T10:13:19.301Z,1.80
2022-12-12T10:16:25.609Z,1.60
2022-12-12T10:19:37.545Z,1.60
2022-12-12T10:22:59.274Z,1.60
2022-12-12T10:26:02.251Z,1.60
2022-12-12T10:31:55.353Z,1.50
2022-12-12T10:34:55.281Z,1.50
2022-12-12T10:38:02.963Z,1.50
2022-12-12T10:41:08.279Z,1.50
2022-12-12T10:43:57.079Z,1.50
2022-12-12T10:46:32.151Z,1.60
2022-12-12T10:49:25.436Z,1.60
2022-12-12T10:51:57.897Z,1.50
2022-12-12T10:54:40.448Z,1.60
2022-12-12T10:57:20.541Z,1.60
2022-12-12T10:59:57.142Z,1.60
2022-12-12T11:02:39.752Z,1.70
2022-12-12T11:05:25.244Z,1.70
2022-12-12T11:08:09.654Z,1.70
2022-12-12T11:10:43.306Z,1.70
2022-12-12T11:13:11.267Z,1.70
2022-12-12T11:16:08.718Z,1.80
2022-12-12T11:18:43.354Z,1.80
2022-12-12T11:21:16.841Z,1.80
2022-12-12T11:23:57.583Z,1.80
2022-12-12T11:26:28.162Z,1.80
2022-12-12T11:29:08.307Z,1.80
2022-12-12T11:31:47.588Z,1.80
2022-12-12T11:34:15.672Z,1.90
2022-12-12T11:36:49.714Z,1.80
2022-12-12T11:39:38.793Z,1.90
2022-12-12T11:42:27.301Z,1.90
2022-12-12T11:45:08.111Z,1.90
2022-12-12T11:48:01.232Z,2.00
2022-12-12T11:50:37.988Z,2.00
2022-12-12T11:53:15.844Z,2.00
2022-12-12T11:55:56.913Z,2.00
2022-12-12T11:58:59.848Z,2.00
2022-12-12T12:02:11.413Z,2.10
2022-12-12T12:05:20.850Z,2.10
2022-12-12T12:08:14.915Z,2.20
2022-12-12T12:11:01.776Z,2.20
2022-12-12T12:14:19.182Z,2.30
2022-12-12T12:17:22.591Z,2.30
2022-12-12T12:19:54.045Z,2.30
2022-12-12T12:22:55.863Z,2.20
2022-12-12T12:25:23.803Z,2.30
2022-12-12T12:28:29.615Z,2.30
2022-12-12T12:31:35.964Z,2.30
2022-12-12T12:34:22.024Z,2.40
2022-12-12T12:36:52.557Z,2.40
2022-12-12T12:39:42.782Z,2.40
2022-12-12T12:42:36.127Z,2.40
2022-12-12T12:45:41.739Z,2.40
2022-12-12T12:48:20.243Z,2.40
2022-12-12T12:51:22.776Z,2.40
2022-12-12T12:54:06.359Z,2.40
2022-12-12T12:56:49.795Z,2.30
2022-12-12T12:59:38.961Z,2.30
2022-12-12T13:02:36.922Z,2.40
2022-12-12T13:05:41.513Z,2.40
2022-12-12T13:08:31.459Z,2.40
2022-12-12T13:11:29.886Z,2.30
2022-12-12T13:14:37.304Z,2.30
2022-12-12T13:17:23.732Z,2.30
2022-12-12T13:23:55.966Z,2.20
2022-12-12T13:26:47.828Z,2.30
2022-12-12T13:29:52.557Z,2.30
2022-12-12T13:32:42.108Z,2.30
2022-12-12T13:35:38.751Z,2.30
2022-12-12T13:38:18.638Z,2.30
2022-12-12T13:41:10.662Z,2.30
2022-12-12T13:43:49.506Z,2.30
2022-12-12T13:50:07.015Z,2.30
2022-12-12T13:52:43.205Z,2.20
2022-12-12T13:55:19.364Z,2.20
2022-12-12T13:58:17.247Z,2.20
2022-12-12T14:01:30.407Z,2.20
2022-12-12T14:04:23.350Z,2.20
2022-12-12T14:08:08.780Z,2.20
2022-12-12T14:11:18.138Z,2.20
2022-12-12T14:14:25.246Z,2.20
2022-12-12T14:16:59.337Z,2.10
2022-12-12T14:19:41.030Z,2.10
2022-12-12T14:22:51.407Z,2.10
2022-12-12T14:25:35.132Z,2.10
2022-12-12T14:28:36.795Z,2.10
2022-12-12T14:31:18.575Z,2.10
2022-12-12T14:34:00.504Z,2.10
2022-12-12T14:36:59.704Z,2.10
2022-12-12T14:39:54.053Z,2.10
2022-12-12T14:43:17.803Z,2.00
2022-12-12T14:45:58.281Z,2.10
2022-12-12T14:48:40.096Z,2.10
2022-12-12T14:54:00.724Z,2.10
2022-12-12T14:56:45.292Z,2.10
2022-12-12T14:59:46.767Z,2.10
2022-12-12T15:02:37.445Z,2.10
2022-12-12T15:05:15.164Z,2.00
2022-12-12T15:07:46.413Z,2.10
2022-12-12T15:10:28.393Z,2.10
2022-12-12T15:12:59.925Z,2.10
2022-12-12T15:15:33.341Z,2.10
2022-12-12T15:18:10.381Z,2.00
2022-12-12T15:21:22.625Z,2.00
2022-12-12T15:23:47.889Z,2.00
2022-12-12T15:26:55.702Z,2.10
2022-12-12T15:29:53.798Z,2.00
2022-12-12T15:32:29.308Z,2.00
2022-12-12T15:35:08.109Z,2.00
2022-12-12T15:38:06.013Z,2.00
2022-12-12T15:40:47.378Z,2.00
2022-12-12T15:43:28.158Z,2.00
2022-12-12T15:46:27.173Z,1.90
2022-12-12T15:49:04.940Z,1.90
2022-12-12T15:51:35.753Z,1.90
2022-12-12T15:54:15.205Z,1.80
2022-12-12T15:56:50.338Z,1.80
2022-12-12T15:59:30.375Z,1.70
2022-12-12T16:02:31.947Z,1.70
2022-12-12T16:05:10.776Z,1.60
2022-12-12T16:07:45.831Z,1.50
2022-12-12T16:10:20.279Z,1.50
2022-12-12T16:13:53.184Z,1.40
2022-12-12T16:16:51.568Z,1.10
2022-12-12T16:19:44.650Z,1.40
2022-12-12T16:23:04.478Z,1.20
2022-12-12T16:25:40.493Z,1.30
2022-12-12T16:28:32.241Z,1.20
2022-12-12T16:31:16.854Z,1.20
2022-12-12T16:33:55.601Z,1.20
2022-12-12T16:36:41.420Z,1.40
2022-12-12T16:39:24.888Z,1.20
2022-12-12T16:42:06.116Z,1.20
2022-12-12T16:44:42.599Z,1.20
2022-12-12T16:47:28.275Z,1.20
2022-12-12T16:50:11.413Z,1.10
2022-12-12T16:52:57.625Z,1.10
2022-12-12T16:56:08.473Z,1.10
2022-12-12T16:58:36.631Z,1.10
2022-12-12T17:01:11.199Z,1.00
2022-12-12T17:04:21.504Z,1.00
2022-12-12T17:06:51.198Z,1.00
2022-12-12T17:09:45.731Z,1.00
2022-12-12T17:12:22.532Z,1.00
2022-12-12T17:15:14.912Z,0.90
2022-12-12T17:17:54.754Z,0.90
2022-12-12T17:20:27.202Z,0.90
2022-12-12T17:23:30.739Z,0.80
2022-12-12T17:26:06.161Z,0.80
2022-12-12T17:28:55.263Z,0.80
2022-12-12T17:31:33.432Z,0.70
2022-12-12T17:34:30.186Z,0.70
2022-12-12T17:37:33.714Z,0.70
2022-12-12T17:40:08.794Z,0.80
2022-12-12T17:42:52.662Z,0.60
2022-12-12T17:45:41.914Z,0.60
2022-12-12T17:48:22.183Z,0.60
2022-12-12T17:51:25.845Z,0.60
2022-12-12T17:54:01.004Z,0.60
2022-12-12T17:57:02.773Z,0.60
2022-12-12T17:59:44.629Z,0.60
2022-12-12T18:02:45.572Z,0.60
2022-12-12T18:05:42.467Z,0.50
2022-12-12T18:09:08.412Z,0.50
2022-12-12T18:11:48.854Z,0.50
2022-12-12T18:14:32.280Z,0.50
2022-12-12T18:17:11.129Z,0.40
2022-12-12T18:19:59.667Z,0.30
2022-12-12T18:22:53.738Z,0.40
2022-12-12T18:25:49.093Z,1.00
2022-12-12T18:28:30.515Z,0.30
2022-12-12T18:31:15.318Z,0.30
2022-12-12T18:34:14.637Z,0.30
2022-12-12T18:36:53.994Z,0.40
2022-12-12T18:39:26.667Z,0.50
2022-12-12T18:42:05.357Z,0.80
2022-12-12T18:45:09.782Z,0.80
2022-12-12T18:47:50.481Z,0.90
2022-12-12T18:50:32.052Z,1.10
2022-12-12T18:53:25.592Z,1.10
2022-12-12T18:56:05.318Z,1.20
2022-12-12T18:59:47.672Z,1.30
2022-12-12T19:02:13.451Z,1.40
2022-12-12T19:05:16.509Z,1.40
2022-12-12T19:11:44.708Z,1.50
2022-12-12T19:14:45.901Z,1.50
2022-12-12T19:17:29.101Z,1.50
2022-12-12T19:21:07.804Z,1.60
2022-12-12T19:26:45.091Z,1.70
2022-12-12T19:29:20.712Z,1.70
2022-12-12T19:35:04.356Z,1.70
2022-12-12T19:39:00.357Z,1.70
2022-12-12T19:41:54.081Z,1.70
2022-12-12T19:44:37.470Z,1.70
2022-12-12T19:47:10.891Z,1.70
2022-12-12T19:49:48.388Z,1.80
2022-12-12T19:52:43.761Z,1.80
2022-12-12T19:55:20.449Z,1.80
2022-12-12T19:57:48.664Z,1.80
2022-12-12T20:00:23.071Z,1.80
2022-12-12T20:02:50.925Z,1.80
2022-12-12T20:05:24.321Z,1.80
2022-12-12T20:08:17.063Z,1.80
2022-12-12T20:10:55.688Z,1.80
2022-12-12T20:13:34.607Z,1.80
2022-12-12T20:16:15.164Z,1.80
2022-12-12T20:18:47.693Z,1.80
2022-12-12T20:24:30.392Z,1.80
2022-12-12T20:27:15.885Z,1.80
2022-12-12T20:29:56.128Z,1.80
2022-12-12T20:32:31.159Z,1.90
2022-12-12T20:35:04.249Z,1.80
2022-12-12T20:37:52.120Z,1.80
2022-12-12T20:40:25.517Z,1.80
2022-12-12T20:43:03.528Z,1.80
2022-12-12T20:45:39.944Z,1.80
2022-12-12T20:48:09.024Z,1.80
2022-12-12T20:50:40.648Z,1.70
2022-12-12T20:53:36.674Z,1.80
2022-12-12T20:56:46.293Z,1.70
2022-12-12T21:03:35.775Z,1.70
2022-12-12T21:06:52.020Z,1.70
2022-12-12T21:10:24.364Z,1.70
2022-12-12T21:13:34.034Z,1.70
2022-12-12T21:16:24.358Z,1.60
2022-12-12T21:19:09.709Z,1.60
2022-12-12T21:22:01.535Z,1.60
2022-12-12T21:24:36.573Z,1.50
2022-12-12T21:27:28.763Z,1.50
2022-12-12T21:31:01.025Z,1.40
2022-12-12T21:42:31.946Z,1.40
2022-12-12T21:49:57.978Z,1.00
2022-12-12T22:00:36.797Z,0.80
2022-12-12T22:03:34.309Z,0.80
2022-12-12T22:06:11.720Z,0.70
2022-12-12T22:08:40.612Z,0.70
2022-12-12T22:11:10.069Z,0.90
2022-12-12T22:13:40.324Z,1.00
2022-12-12T22:16:15.298Z,0.60
2022-12-12T22:18:43.108Z,0.70
2022-12-12T22:21:15.287Z,0.60
2022-12-12T22:23:43.119Z,0.50
2022-12-12T22:26:18.943Z,0.50
2022-12-12T22:28:47.244Z,0.40
2022-12-12T22:31:14.931Z,0.50
2022-12-12T22:33:45.482Z,0.40
2022-12-12T22:36:13.744Z,0.30
2022-12-12T22:38:41.549Z,0.30
2022-12-12T22:41:11.552Z,0.20
2022-12-12T22:43:39.400Z,0.20
2022-12-12T22:46:08.188Z,0.20
2022-12-12T22:48:36.507Z,0.20
2022-12-12T22:51:21.409Z,0.10
2022-12-12T22:53:49.359Z,0.20
2022-12-12T22:56:17.819Z,0.00
2022-12-12T22:58:45.531Z,-0.10
2022-12-12T23:01:18.219Z,-0.10
2022-12-12T23:03:47.007Z,-0.10
2022-12-12T23:06:23.679Z,-0.20
2022-12-12T23:08:59.534Z,-0.30
2022-12-12T23:11:29.320Z,-0.30
2022-12-12T23:14:01.312Z,-0.40
2022-12-12T23:16:30.990Z,-0.40
2022-12-12T23:18:59.206Z,-0.50
2022-12-12T23:21:29.982Z,-0.50
2022-12-12T23:23:57.712Z,-0.50
2022-12-12T23:26:29.992Z,-0.60
2022-12-12T23:28:59.350Z,-0.60
2022-12-12T23:31:32.992Z,-0.60
2022-12-12T23:34:04.859Z,-0.60
2022-12-12T23:36:32.749Z,-0.60
2022-12-12T23:39:04.133Z,-0.60
2022-12-12T23:41:31.824Z,-0.70
2022-12-12T23:43:59.577Z,-0.60
2022-12-12T23:46:33.849Z,-0.70
2022-12-12T23:49:08.944Z,-0.70
2022-12-12T23:51:39.666Z,-0.70
2022-12-12T23:54:11.274Z,-0.60
2022-12-12T23:56:39.732Z,-0.70
2022-12-12T23:59:10.677Z,-0.40
